Main page
METAR-TAF:

METAR-TAF

Airports :

Dubai, United Arab Emirates

Dubai International Airport

latitude: 25-15-10N, longitude: 055-21-52E, elevation: 8 m

Current weather observation

The report was made 45 minutes ago, at 11:00 UTC
Wind 20 kt from the Northwest
Temperature 32°C
Humidity 41%
Pressure 1008 hPa
Visibility: 8000 m

METAR: OMDB 261100Z 32020KT 8000 NSC 32/17 Q1008 WS ALL RWY NOSIG

Time: 15:45 (11:45 UTC)

Forecast

The report was made 43 minutes ago, at 11:02 UTC
Forecast valid from 26 at 12 UTC to 27 at 18 UTC
Wind 15 kt from the West/Northwest
Visibility: 8000 m
Becoming
from 26 at 15 UTC to 26 at 17 UTC
Wind 5 kt from the East/Southeast
Becoming
from 27 at 08 UTC to 27 at 10 UTC
Wind 12 kt from the North/Northwest
Becoming
from 27 at 15 UTC to 27 at 17 UTC
Wind 5 kt from the Southeast

TAF: OMDB 261102Z 2612/2718 30015KT 8000 NSC BECMG 2615/2617 12005KT BECMG 2708/2710 34012KT BECMG 2715/2717 14005KT

Weather observations and forecasts of more than 4000 airports (METAR and TAF reports).

The available stations are represented by yellow and red dots on the map.

Hover mouse over dot to see the name of the station.

Then click to see weather observations and forecasts.

To change the map : click on the green buttons with a black cross to zoom in, on the green button with a dash to zoom out, or on the green arrows for adjacent maps.


METAR-TAF: